sensor_id;sensor_type;location;lat;lon;timestamp;P1;P2;P0
77411;PMS7003;66484;49.968;19.140;2023-02-23T00:03:37;30.00;23.00;15.00
77411;PMS7003;66484;49.968;19.140;2023-02-23T00:06:05;31.50;22.75;14.75
77411;PMS7003;66484;49.968;19.140;2023-02-23T00:08:33;31.00;24.75;18.75
77411;PMS7003;66484;49.968;19.140;2023-02-23T00:11:02;26.50;22.75;17.50
77411;PMS7003;66484;49.968;19.140;2023-02-23T00:13:32;21.50;20.00;14.25
77411;PMS7003;66484;49.968;19.140;2023-02-23T00:16:20;25.00;24.00;16.00
77411;PMS7003;66484;49.968;19.140;2023-02-23T00:18:48;25.25;21.50;17.75
77411;PMS7003;66484;49.968;19.140;2023-02-23T00:21:28;28.25;25.25;22.25
77411;PMS7003;66484;49.968;19.140;2023-02-23T00:23:59;28.50;27.00;15.75
77411;PMS7003;66484;49.968;19.140;2023-02-23T00:26:30;26.25;20.75;14.00
77411;PMS7003;66484;49.968;19.140;2023-02-23T00:29:01;22.25;19.25;14.00
77411;PMS7003;66484;49.968;19.140;2023-02-23T00:31:28;23.00;17.25;12.75
77411;PMS7003;66484;49.968;19.140;2023-02-23T00:33:55;29.50;24.75;18.50
77411;PMS7003;66484;49.968;19.140;2023-02-23T00:36:23;18.25;15.50;14.00
77411;PMS7003;66484;49.968;19.140;2023-02-23T00:38:53;21.25;20.00;16.50
77411;PMS7003;66484;49.968;19.140;2023-02-23T00:41:21;19.25;18.75;12.75
77411;PMS7003;66484;49.968;19.140;2023-02-23T00:43:53;28.00;17.25;14.25
77411;PMS7003;66484;49.968;19.140;2023-02-23T00:46:22;20.75;18.50;16.00
77411;PMS7003;66484;49.968;19.140;2023-02-23T00:48:51;25.50;19.00;14.50
77411;PMS7003;66484;49.968;19.140;2023-02-23T00:51:20;26.75;18.50;13.25
77411;PMS7003;66484;49.968;19.140;2023-02-23T00:53:47;21.25;16.75;12.75
77411;PMS7003;66484;49.968;19.140;2023-02-23T00:56:14;18.00;11.75;11.25
77411;PMS7003;66484;49.968;19.140;2023-02-23T00:58:41;27.25;24.50;15.75
77411;PMS7003;66484;49.968;19.140;2023-02-23T01:01:08;20.25;18.75;15.50
77411;PMS7003;66484;49.968;19.140;2023-02-23T01:03:36;27.75;19.25;12.75
77411;PMS7003;66484;49.968;19.140;2023-02-23T01:06:03;19.50;18.25;13.50
77411;PMS7003;66484;49.968;19.140;2023-02-23T01:08:32;24.75;22.25;18.50
77411;PMS7003;66484;49.968;19.140;2023-02-23T01:10:58;19.25;17.75;14.50
77411;PMS7003;66484;49.968;19.140;2023-02-23T01:13:25;29.75;24.75;16.75
77411;PMS7003;66484;49.968;19.140;2023-02-23T01:15:52;15.50;14.00;10.00
77411;PMS7003;66484;49.968;19.140;2023-02-23T01:18:18;16.25;16.25;14.00
77411;PMS7003;66484;49.968;19.140;2023-02-23T01:20:45;28.00;22.75;16.50
77411;PMS7003;66484;49.968;19.140;2023-02-23T01:23:12;24.00;20.50;15.50
77411;PMS7003;66484;49.968;19.140;2023-02-23T01:25:40;20.50;14.75;11.00
77411;PMS7003;66484;49.968;19.140;2023-02-23T01:28:10;23.25;17.00;14.50
77411;PMS7003;66484;49.968;19.140;2023-02-23T01:30:37;24.50;16.00;14.00
77411;PMS7003;66484;49.968;19.140;2023-02-23T01:33:04;26.50;20.00;15.50
77411;PMS7003;66484;49.968;19.140;2023-02-23T01:35:30;25.75;18.00;15.25
77411;PMS7003;66484;49.968;19.140;2023-02-23T01:37:57;19.00;14.50;12.75
77411;PMS7003;66484;49.968;19.140;2023-02-23T01:40:23;21.00;21.00;15.00
77411;PMS7003;66484;49.968;19.140;2023-02-23T01:43:26;20.75;19.00;14.75
77411;PMS7003;66484;49.968;19.140;2023-02-23T01:45:53;20.75;20.00;15.00
77411;PMS7003;66484;49.968;19.140;2023-02-23T01:48:21;22.25;20.75;16.75
77411;PMS7003;66484;49.968;19.140;2023-02-23T01:50:59;33.75;29.50;21.00
77411;PMS7003;66484;49.968;19.140;2023-02-23T01:53:27;19.25;19.25;15.00
77411;PMS7003;66484;49.968;19.140;2023-02-23T01:55:56;25.75;23.75;16.50
77411;PMS7003;66484;49.968;19.140;2023-02-23T01:58:23;28.75;23.75;13.00
77411;PMS7003;66484;49.968;19.140;2023-02-23T02:00:55;23.25;19.25;11.25
77411;PMS7003;66484;49.968;19.140;2023-02-23T02:03:33;26.50;20.50;14.50
77411;PMS7003;66484;49.968;19.140;2023-02-23T02:06:01;20.50;16.50;12.00
77411;PMS7003;66484;49.968;19.140;2023-02-23T02:08:29;32.50;28.50;19.75
77411;PMS7003;66484;49.968;19.140;2023-02-23T02:10:57;22.25;18.75;14.50
77411;PMS7003;66484;49.968;19.140;2023-02-23T02:13:27;20.50;14.00;10.00
77411;PMS7003;66484;49.968;19.140;2023-02-23T02:16:04;23.50;22.00;17.00
77411;PMS7003;66484;49.968;19.140;2023-02-23T02:19:05;25.25;24.25;19.00
77411;PMS7003;66484;49.968;19.140;2023-02-23T02:22:00;21.25;19.50;15.25
77411;PMS7003;66484;49.968;19.140;2023-02-23T02:36:05;23.25;21.25;15.75
77411;PMS7003;66484;49.968;19.140;2023-02-23T02:38:50;19.75;16.25;12.75
77411;PMS7003;66484;49.968;19.140;2023-02-23T02:41:24;24.75;22.00;16.25
77411;PMS7003;66484;49.968;19.140;2023-02-23T02:44:01;21.25;21.00;15.75
77411;PMS7003;66484;49.968;19.140;2023-02-23T02:46:36;23.00;22.00;17.50
77411;PMS7003;66484;49.968;19.140;2023-02-23T02:49:08;36.75;28.50;18.50
77411;PMS7003;66484;49.968;19.140;2023-02-23T02:51:46;24.25;21.50;16.00
77411;PMS7003;66484;49.968;19.140;2023-02-23T02:54:27;31.00;25.00;18.00
77411;PMS7003;66484;49.968;19.140;2023-02-23T02:56:59;27.75;23.50;15.75
77411;PMS7003;66484;49.968;19.140;2023-02-23T02:59:28;30.00;27.25;21.00
77411;PMS7003;66484;49.968;19.140;2023-02-23T03:02:22;34.75;31.00;18.75
77411;PMS7003;66484;49.968;19.140;2023-02-23T03:05:17;26.50;21.50;16.00
77411;PMS7003;66484;49.968;19.140;2023-02-23T03:11:10;25.25;20.50;15.25
77411;PMS7003;66484;49.968;19.140;2023-02-23T03:22:57;25.25;21.75;18.25
77411;PMS7003;66484;49.968;19.140;2023-02-23T03:28:50;31.00;23.25;18.25
77411;PMS7003;66484;49.968;19.140;2023-02-23T03:31:41;23.00;21.50;16.50
77411;PMS7003;66484;49.968;19.140;2023-02-23T03:37:21;24.75;24.25;20.00
77411;PMS7003;66484;49.968;19.140;2023-02-23T03:42:58;27.25;21.25;14.50
77411;PMS7003;66484;49.968;19.140;2023-02-23T03:45:44;25.50;24.00;18.50
77411;PMS7003;66484;49.968;19.140;2023-02-23T03:48:31;27.50;24.50;17.00
77411;PMS7003;66484;49.968;19.140;2023-02-23T03:51:16;27.75;24.75;18.00
77411;PMS7003;66484;49.968;19.140;2023-02-23T03:54:05;18.50;16.25;13.50
77411;PMS7003;66484;49.968;19.140;2023-02-23T03:56:53;26.50;24.25;18.00
77411;PMS7003;66484;49.968;19.140;2023-02-23T03:59:40;23.00;20.75;15.75
77411;PMS7003;66484;49.968;19.140;2023-02-23T04:02:29;28.25;24.25;15.50
77411;PMS7003;66484;49.968;19.140;2023-02-23T04:05:16;20.50;19.50;17.00
77411;PMS7003;66484;49.968;19.140;2023-02-23T04:08:02;35.00;26.75;21.00
77411;PMS7003;66484;49.968;19.140;2023-02-23T04:10:50;31.50;25.50;19.50
77411;PMS7003;66484;49.968;19.140;2023-02-23T04:13:39;22.00;22.00;17.75
77411;PMS7003;66484;49.968;19.140;2023-02-23T04:16:08;24.00;24.00;17.50
77411;PMS7003;66484;49.968;19.140;2023-02-23T04:18:35;22.00;21.00;18.00
77411;PMS7003;66484;49.968;19.140;2023-02-23T04:21:02;28.75;24.50;19.00
77411;PMS7003;66484;49.968;19.140;2023-02-23T04:23:28;40.50;33.75;24.00
77411;PMS7003;66484;49.968;19.140;2023-02-23T04:25:55;32.50;26.50;19.50
77411;PMS7003;66484;49.968;19.140;2023-02-23T04:28:22;25.50;24.00;19.00
77411;PMS7003;66484;49.968;19.140;2023-02-23T04:30:48;26.50;24.50;19.50
77411;PMS7003;66484;49.968;19.140;2023-02-23T04:33:16;22.50;22.50;18.75
77411;PMS7003;66484;49.968;19.140;2023-02-23T04:35:43;29.25;24.00;18.50
77411;PMS7003;66484;49.968;19.140;2023-02-23T04:38:09;25.50;23.00;16.25
77411;PMS7003;66484;49.968;19.140;2023-02-23T04:40:35;28.25;25.75;19.75
77411;PMS7003;66484;49.968;19.140;2023-02-23T04:43:01;18.50;11.50;7.00
77411;PMS7003;66484;49.968;19.140;2023-02-23T04:45:27;22.50;19.00;15.75
77411;PMS7003;66484;49.968;19.140;2023-02-23T04:47:53;32.25;30.00;18.00
77411;PMS7003;66484;49.968;19.140;2023-02-23T04:50:19;24.50;21.50;16.00
77411;PMS7003;66484;49.968;19.140;2023-02-23T04:52:45;28.75;24.50;20.75
77411;PMS7003;66484;49.968;19.140;2023-02-23T04:55:22;29.75;24.00;15.00
77411;PMS7003;66484;49.968;19.140;2023-02-23T04:57:49;27.25;22.50;18.25
77411;PMS7003;66484;49.968;19.140;2023-02-23T05:00:17;35.50;30.25;21.50
77411;PMS7003;66484;49.968;19.140;2023-02-23T05:02:43;25.50;20.50;15.75
77411;PMS7003;66484;49.968;19.140;2023-02-23T05:05:10;23.00;22.50;19.00
77411;PMS7003;66484;49.968;19.140;2023-02-23T05:07:36;36.75;28.00;21.00
77411;PMS7003;66484;49.968;19.140;2023-02-23T05:10:03;36.00;30.75;24.75
77411;PMS7003;66484;49.968;19.140;2023-02-23T05:12:30;30.00;29.00;23.00
77411;PMS7003;66484;49.968;19.140;2023-02-23T05:14:56;32.50;27.25;21.00
77411;PMS7003;66484;49.968;19.140;2023-02-23T05:17:22;42.25;35.50;27.50
77411;PMS7003;66484;49.968;19.140;2023-02-23T05:19:49;30.50;27.75;22.00
77411;PMS7003;66484;49.968;19.140;2023-02-23T05:22:14;29.50;29.50;23.75
77411;PMS7003;66484;49.968;19.140;2023-02-23T05:24:41;38.00;33.50;21.50
77411;PMS7003;66484;49.968;19.140;2023-02-23T05:27:07;43.00;32.75;24.75
77411;PMS7003;66484;49.968;19.140;2023-02-23T05:29:34;29.25;25.25;20.25
77411;PMS7003;66484;49.968;19.140;2023-02-23T05:32:00;32.50;22.50;21.50
77411;PMS7003;66484;49.968;19.140;2023-02-23T05:34:26;33.25;30.25;22.00
77411;PMS7003;66484;49.968;19.140;2023-02-23T05:36:52;37.00;32.00;21.25
77411;PMS7003;66484;49.968;19.140;2023-02-23T05:39:21;37.50;36.75;27.75
77411;PMS7003;66484;49.968;19.140;2023-02-23T05:41:47;49.00;45.25;33.00
77411;PMS7003;66484;49.968;19.140;2023-02-23T05:44:13;31.50;29.00;23.50
77411;PMS7003;66484;49.968;19.140;2023-02-23T05:46:39;46.75;36.25;26.00
77411;PMS7003;66484;49.968;19.140;2023-02-23T05:49:05;35.00;32.00;24.75
77411;PMS7003;66484;49.968;19.140;2023-02-23T05:51:31;35.50;30.50;23.50
77411;PMS7003;66484;49.968;19.140;2023-02-23T05:53:59;36.50;30.25;25.50
77411;PMS7003;66484;49.968;19.140;2023-02-23T05:56:25;38.50;27.75;22.25
77411;PMS7003;66484;49.968;19.140;2023-02-23T05:58:55;32.25;29.75;21.00
77411;PMS7003;66484;49.968;19.140;2023-02-23T06:01:22;32.25;28.00;21.50
77411;PMS7003;66484;49.968;19.140;2023-02-23T06:03:48;37.50;36.50;24.25
77411;PMS7003;66484;49.968;19.140;2023-02-23T06:06:15;36.75;28.50;21.25
77411;PMS7003;66484;49.968;19.140;2023-02-23T06:08:41;37.25;31.75;20.50
77411;PMS7003;66484;49.968;19.140;2023-02-23T06:11:08;39.75;36.00;26.50
77411;PMS7003;66484;49.968;19.140;2023-02-23T06:13:34;32.50;25.25;16.25
77411;PMS7003;66484;49.968;19.140;2023-02-23T06:16:00;40.25;34.25;27.50
77411;PMS7003;66484;49.968;19.140;2023-02-23T06:18:27;47.25;40.50;30.00
77411;PMS7003;66484;49.968;19.140;2023-02-23T06:20:53;50.75;37.75;25.25
77411;PMS7003;66484;49.968;19.140;2023-02-23T06:23:19;41.25;33.50;24.50
77411;PMS7003;66484;49.968;19.140;2023-02-23T06:25:45;25.25;25.00;19.50
77411;PMS7003;66484;49.968;19.140;2023-02-23T06:28:12;29.75;27.50;20.00
77411;PMS7003;66484;49.968;19.140;2023-02-23T06:30:38;34.25;28.25;22.50
77411;PMS7003;66484;49.968;19.140;2023-02-23T06:33:04;31.50;29.00;23.00
77411;PMS7003;66484;49.968;19.140;2023-02-23T06:35:30;29.00;27.00;22.00
77411;PMS7003;66484;49.968;19.140;2023-02-23T06:37:57;28.75;23.00;18.50
77411;PMS7003;66484;49.968;19.140;2023-02-23T06:40:24;40.75;37.50;29.25
77411;PMS7003;66484;49.968;19.140;2023-02-23T06:42:53;30.75;27.75;23.00
77411;PMS7003;66484;49.968;19.140;2023-02-23T06:45:19;29.75;28.50;19.00
77411;PMS7003;66484;49.968;19.140;2023-02-23T06:47:45;30.25;26.25;20.75
77411;PMS7003;66484;49.968;19.140;2023-02-23T06:50:11;36.00;28.50;21.50
77411;PMS7003;66484;49.968;19.140;2023-02-23T06:52:38;35.25;30.25;23.75
77411;PMS7003;66484;49.968;19.140;2023-02-23T06:55:04;42.25;29.50;20.75
77411;PMS7003;66484;49.968;19.140;2023-02-23T06:57:31;31.50;27.75;24.00
77411;PMS7003;66484;49.968;19.140;2023-02-23T06:59:57;32.50;31.50;22.00
77411;PMS7003;66484;49.968;19.140;2023-02-23T07:02:23;36.25;33.50;24.25
77411;PMS7003;66484;49.968;19.140;2023-02-23T07:04:49;38.25;32.50;24.50
77411;PMS7003;66484;49.968;19.140;2023-02-23T07:07:15;43.75;38.00;23.00
77411;PMS7003;66484;49.968;19.140;2023-02-23T07:09:41;43.50;34.25;25.00
77411;PMS7003;66484;49.968;19.140;2023-02-23T07:12:08;37.75;32.75;24.25
77411;PMS7003;66484;49.968;19.140;2023-02-23T07:14:34;34.75;28.75;21.25
77411;PMS7003;66484;49.968;19.140;2023-02-23T07:17:01;42.25;33.50;19.75
77411;PMS7003;66484;49.968;19.140;2023-02-23T07:19:26;35.25;28.25;22.25
77411;PMS7003;66484;49.968;19.140;2023-02-23T07:21:53;43.75;33.75;20.00
77411;PMS7003;66484;49.968;19.140;2023-02-23T07:24:19;32.25;30.00;22.50
77411;PMS7003;66484;49.968;19.140;2023-02-23T07:26:46;42.25;33.50;22.25
77411;PMS7003;66484;49.968;19.140;2023-02-23T07:29:13;49.00;32.00;23.50
77411;PMS7003;66484;49.968;19.140;2023-02-23T07:31:40;28.25;24.50;18.00
77411;PMS7003;66484;49.968;19.140;2023-02-23T07:34:07;40.00;30.50;20.75
77411;PMS7003;66484;49.968;19.140;2023-02-23T07:36:34;40.75;32.00;23.50
77411;PMS7003;66484;49.968;19.140;2023-02-23T07:39:00;14.00;8.75;0.00
77411;PMS7003;66484;49.968;19.140;2023-02-23T07:41:28;29.00;27.00;21.00
77411;PMS7003;66484;49.968;19.140;2023-02-23T07:43:53;38.50;30.25;21.75
77411;PMS7003;66484;49.968;19.140;2023-02-23T07:46:19;38.00;34.50;24.75
77411;PMS7003;66484;49.968;19.140;2023-02-23T07:48:45;31.75;26.75;18.75
77411;PMS7003;66484;49.968;19.140;2023-02-23T07:51:12;45.50;36.50;24.25
77411;PMS7003;66484;49.968;19.140;2023-02-23T07:53:39;36.75;30.25;23.25
77411;PMS7003;66484;49.968;19.140;2023-02-23T07:56:06;36.75;33.50;21.25
77411;PMS7003;66484;49.968;19.140;2023-02-23T07:58:38;33.75;29.75;22.00
77411;PMS7003;66484;49.968;19.140;2023-02-23T08:01:06;36.25;31.25;20.25
77411;PMS7003;66484;49.968;19.140;2023-02-23T08:03:32;23.00;16.75;9.50
77411;PMS7003;66484;49.968;19.140;2023-02-23T08:05:58;36.00;34.25;22.75
77411;PMS7003;66484;49.968;19.140;2023-02-23T08:08:24;39.00;32.75;23.50
77411;PMS7003;66484;49.968;19.140;2023-02-23T08:10:57;31.75;27.25;17.25
77411;PMS7003;66484;49.968;19.140;2023-02-23T08:13:24;35.00;32.00;23.75
77411;PMS7003;66484;49.968;19.140;2023-02-23T08:15:50;33.50;30.25;20.25
77411;PMS7003;66484;49.968;19.140;2023-02-23T08:18:16;43.50;36.50;22.50
77411;PMS7003;66484;49.968;19.140;2023-02-23T08:20:42;32.25;32.25;22.00
77411;PMS7003;66484;49.968;19.140;2023-02-23T08:23:07;39.25;36.25;24.25
77411;PMS7003;66484;49.968;19.140;2023-02-23T08:25:34;43.75;38.00;28.00
77411;PMS7003;66484;49.968;19.140;2023-02-23T08:28:00;42.00;36.50;25.75
77411;PMS7003;66484;49.968;19.140;2023-02-23T08:30:29;24.00;21.75;14.25
77411;PMS7003;66484;49.968;19.140;2023-02-23T08:32:56;37.75;33.75;27.00
77411;PMS7003;66484;49.968;19.140;2023-02-23T08:35:22;47.75;41.50;27.00
77411;PMS7003;66484;49.968;19.140;2023-02-23T08:37:48;47.25;39.50;24.75
77411;PMS7003;66484;49.968;19.140;2023-02-23T08:40:16;44.75;39.00;26.50
77411;PMS7003;66484;49.968;19.140;2023-02-23T08:42:42;42.00;39.50;26.75
77411;PMS7003;66484;49.968;19.140;2023-02-23T08:45:09;37.50;32.00;20.25
77411;PMS7003;66484;49.968;19.140;2023-02-23T08:47:36;45.00;35.25;23.00
77411;PMS7003;66484;49.968;19.140;2023-02-23T08:50:03;45.50;35.25;23.75
77411;PMS7003;66484;49.968;19.140;2023-02-23T08:52:30;47.25;35.00;23.50
77411;PMS7003;66484;49.968;19.140;2023-02-23T08:54:56;48.75;37.00;26.50
77411;PMS7003;66484;49.968;19.140;2023-02-23T08:57:22;42.50;37.25;26.50
77411;PMS7003;66484;49.968;19.140;2023-02-23T08:59:49;43.00;36.50;24.25
77411;PMS7003;66484;49.968;19.140;2023-02-23T09:02:14;35.75;31.50;21.00
77411;PMS7003;66484;49.968;19.140;2023-02-23T09:04:40;46.50;37.75;25.75
77411;PMS7003;66484;49.968;19.140;2023-02-23T09:07:08;43.00;35.25;24.50
77411;PMS7003;66484;49.968;19.140;2023-02-23T09:09:38;33.50;29.25;24.00
77411;PMS7003;66484;49.968;19.140;2023-02-23T09:12:04;42.00;36.00;24.75
77411;PMS7003;66484;49.968;19.140;2023-02-23T09:14:30;37.00;35.50;25.25
77411;PMS7003;66484;49.968;19.140;2023-02-23T09:16:56;42.00;37.50;26.75
77411;PMS7003;66484;49.968;19.140;2023-02-23T09:19:23;29.50;26.75;19.75
77411;PMS7003;66484;49.968;19.140;2023-02-23T09:21:52;46.25;34.75;24.00
77411;PMS7003;66484;49.968;19.140;2023-02-23T09:24:18;42.25;34.50;26.50
77411;PMS7003;66484;49.968;19.140;2023-02-23T09:26:46;44.25;41.25;29.50
77411;PMS7003;66484;49.968;19.140;2023-02-23T09:29:12;30.50;23.25;12.25
77411;PMS7003;66484;49.968;19.140;2023-02-23T09:31:38;37.75;35.75;26.75
77411;PMS7003;66484;49.968;19.140;2023-02-23T09:34:05;45.75;39.75;28.00
77411;PMS7003;66484;49.968;19.140;2023-02-23T09:36:31;55.75;43.75;30.25
77411;PMS7003;66484;49.968;19.140;2023-02-23T09:38:57;56.00;42.00;28.50
77411;PMS7003;66484;49.968;19.140;2023-02-23T09:41:34;45.25;40.00;26.00
77411;PMS7003;66484;49.968;19.140;2023-02-23T09:50:37;57.25;47.25;34.00
77411;PMS7003;66484;49.968;19.140;2023-02-23T09:55:32;48.00;42.50;30.00
77411;PMS7003;66484;49.968;19.140;2023-02-23T09:58:01;43.75;39.25;27.00
77411;PMS7003;66484;49.968;19.140;2023-02-23T10:00:34;50.50;38.50;27.50
77411;PMS7003;66484;49.968;19.140;2023-02-23T10:03:07;54.25;37.50;26.00
77411;PMS7003;66484;49.968;19.140;2023-02-23T10:05:48;42.25;37.75;27.25
77411;PMS7003;66484;49.968;19.140;2023-02-23T10:08:19;41.25;27.50;19.75
77411;PMS7003;66484;49.968;19.140;2023-02-23T10:11:04;45.25;30.75;24.50
77411;PMS7003;66484;49.968;19.140;2023-02-23T10:16:44;52.00;38.50;28.00
77411;PMS7003;66484;49.968;19.140;2023-02-23T10:22:21;40.50;36.25;25.75
77411;PMS7003;66484;49.968;19.140;2023-02-23T10:25:34;40.75;35.25;26.00
77411;PMS7003;66484;49.968;19.140;2023-02-23T10:27:46;33.00;25.25;20.50
77411;PMS7003;66484;49.968;19.140;2023-02-23T10:32:58;49.50;39.50;28.00
77411;PMS7003;66484;49.968;19.140;2023-02-23T10:35:26;47.00;40.25;25.25
77411;PMS7003;66484;49.968;19.140;2023-02-23T10:37:54;37.25;37.25;27.75
77411;PMS7003;66484;49.968;19.140;2023-02-23T10:40:22;47.25;39.00;27.50
77411;PMS7003;66484;49.968;19.140;2023-02-23T10:42:50;42.50;35.50;27.00
77411;PMS7003;66484;49.968;19.140;2023-02-23T10:45:18;41.00;35.00;24.50
77411;PMS7003;66484;49.968;19.140;2023-02-23T10:48:03;35.00;35.00;25.50
77411;PMS7003;66484;49.968;19.140;2023-02-23T10:50:32;30.25;28.50;21.75
77411;PMS7003;66484;49.968;19.140;2023-02-23T10:55:46;40.50;35.25;24.25
77411;PMS7003;66484;49.968;19.140;2023-02-23T10:58:25;37.50;31.50;21.75
77411;PMS7003;66484;49.968;19.140;2023-02-23T11:01:02;45.25;32.50;20.00
77411;PMS7003;66484;49.968;19.140;2023-02-23T11:03:31;37.00;33.50;25.00
77411;PMS7003;66484;49.968;19.140;2023-02-23T11:05:57;37.00;31.00;24.00
77411;PMS7003;66484;49.968;19.140;2023-02-23T11:08:29;20.00;16.50;10.00
77411;PMS7003;66484;49.968;19.140;2023-02-23T11:16:02;34.25;32.25;22.50
77411;PMS7003;66484;49.968;19.140;2023-02-23T11:18:31;31.50;30.00;20.25
77411;PMS7003;66484;49.968;19.140;2023-02-23T11:20:57;34.75;32.00;24.75
77411;PMS7003;66484;49.968;19.140;2023-02-23T11:23:25;35.25;34.00;25.00
77411;PMS7003;66484;49.968;19.140;2023-02-23T11:25:57;40.33;34.00;23.67
77411;PMS7003;66484;49.968;19.140;2023-02-23T11:28:30;38.33;32.00;25.00
77411;PMS7003;66484;49.968;19.140;2023-02-23T11:33:40;36.00;30.67;22.33
77411;PMS7003;66484;49.968;19.140;2023-02-23T11:41:44;29.33;25.67;20.67
77411;PMS7003;66484;49.968;19.140;2023-02-23T11:44:20;38.33;33.33;23.00
77411;PMS7003;66484;49.968;19.140;2023-02-23T11:46:46;31.67;31.67;22.33
77411;PMS7003;66484;49.968;19.140;2023-02-23T11:49:15;36.00;31.33;23.67
77411;PMS7003;66484;49.968;19.140;2023-02-23T11:51:45;31.67;30.00;24.00
77411;PMS7003;66484;49.968;19.140;2023-02-23T11:54:35;23.33;21.67;19.33
77411;PMS7003;66484;49.968;19.140;2023-02-23T11:57:00;37.00;31.67;25.00
77411;PMS7003;66484;49.968;19.140;2023-02-23T11:59:28;43.00;30.00;19.33
77411;PMS7003;66484;49.968;19.140;2023-02-23T12:01:59;37.67;34.67;24.67
77411;PMS7003;66484;49.968;19.140;2023-02-23T12:04:36;36.33;34.00;25.00
77411;PMS7003;66484;49.968;19.140;2023-02-23T12:10:11;34.00;25.33;19.00
77411;PMS7003;66484;49.968;19.140;2023-02-23T12:20:55;34.33;30.67;23.00
77411;PMS7003;66484;49.968;19.140;2023-02-23T12:23:23;41.67;30.33;21.00
77411;PMS7003;66484;49.968;19.140;2023-02-23T12:25:55;33.67;31.67;23.00
77411;PMS7003;66484;49.968;19.140;2023-02-23T12:28:32;33.33;31.33;24.33
77411;PMS7003;66484;49.968;19.140;2023-02-23T12:31:19;39.33;35.67;25.00
77411;PMS7003;66484;49.968;19.140;2023-02-23T12:33:56;37.33;33.00;22.67
77411;PMS7003;66484;49.968;19.140;2023-02-23T12:36:35;35.33;33.00;25.00
77411;PMS7003;66484;49.968;19.140;2023-02-23T12:39:21;36.33;36.00;24.00
77411;PMS7003;66484;49.968;19.140;2023-02-23T12:42:05;41.33;36.67;23.67
77411;PMS7003;66484;49.968;19.140;2023-02-23T12:48:30;38.67;33.00;23.67
77411;PMS7003;66484;49.968;19.140;2023-02-23T12:53:38;33.00;28.67;21.67
77411;PMS7003;66484;49.968;19.140;2023-02-23T12:58:40;47.33;34.67;21.67
77411;PMS7003;66484;49.968;19.140;2023-02-23T13:04:08;32.67;29.00;22.33
77411;PMS7003;66484;49.968;19.140;2023-02-23T13:12:47;36.67;31.67;22.00
77411;PMS7003;66484;49.968;19.140;2023-02-23T13:18:28;43.33;39.00;27.00
77411;PMS7003;66484;49.968;19.140;2023-02-23T13:26:02;43.67;38.33;26.33
77411;PMS7003;66484;49.968;19.140;2023-02-23T13:31:52;46.67;37.00;27.00
77411;PMS7003;66484;49.968;19.140;2023-02-23T13:35:19;54.75;46.00;30.50
77411;PMS7003;66484;49.968;19.140;2023-02-23T13:37:16;47.33;39.33;26.33
77411;PMS7003;66484;49.968;19.140;2023-02-23T13:42:29;52.67;42.67;27.67
77411;PMS7003;66484;49.968;19.140;2023-02-23T13:47:44;44.67;39.00;27.33
77411;PMS7003;66484;49.968;19.140;2023-02-23T13:50:55;54.33;42.33;27.33
77411;PMS7003;66484;49.968;19.140;2023-02-23T13:53:06;50.33;40.33;27.00
77411;PMS7003;66484;49.968;19.140;2023-02-23T13:55:52;40.67;37.33;26.00
77411;PMS7003;66484;49.968;19.140;2023-02-23T13:58:28;43.33;38.00;26.33
77411;PMS7003;66484;49.968;19.140;2023-02-23T14:01:06;29.67;16.00;5.33
77411;PMS7003;66484;49.968;19.140;2023-02-23T14:03:43;44.67;37.67;25.00
77411;PMS7003;66484;49.968;19.140;2023-02-23T14:06:17;42.33;34.67;25.67
77411;PMS7003;66484;49.968;19.140;2023-02-23T14:08:45;35.00;30.67;23.67
77411;PMS7003;66484;49.968;19.140;2023-02-23T14:11:33;50.33;39.00;27.00
77411;PMS7003;66484;49.968;19.140;2023-02-23T14:14:02;36.33;32.00;23.00
77411;PMS7003;66484;49.968;19.140;2023-02-23T14:16:28;44.00;36.67;25.00
77411;PMS7003;66484;49.968;19.140;2023-02-23T14:18:56;31.00;31.00;24.00
77411;PMS7003;66484;49.968;19.140;2023-02-23T14:24:19;30.00;25.00;17.33
77411;PMS7003;66484;49.968;19.140;2023-02-23T14:29:28;29.67;25.00;15.00
77411;PMS7003;66484;49.968;19.140;2023-02-23T14:31:59;49.00;40.67;27.67
77411;PMS7003;66484;49.968;19.140;2023-02-23T14:37:16;42.67;38.00;26.67
77411;PMS7003;66484;49.968;19.140;2023-02-23T14:39:49;45.33;38.67;26.33
77411;PMS7003;66484;49.968;19.140;2023-02-23T14:42:21;45.67;38.33;26.67
77411;PMS7003;66484;49.968;19.140;2023-02-23T14:44:50;44.25;38.25;27.00
77411;PMS7003;66484;49.968;19.140;2023-02-23T14:47:19;51.33;40.00;28.00
77411;PMS7003;66484;49.968;19.140;2023-02-23T14:49:48;54.00;41.75;28.50
77411;PMS7003;66484;49.968;19.140;2023-02-23T14:52:21;50.33;42.33;27.67
77411;PMS7003;66484;49.968;19.140;2023-02-23T14:54:49;53.75;42.50;28.50
77411;PMS7003;66484;49.968;19.140;2023-02-23T14:57:17;46.00;38.00;27.33
77411;PMS7003;66484;49.968;19.140;2023-02-23T14:59:50;56.00;45.00;30.25
77411;PMS7003;66484;49.968;19.140;2023-02-23T15:02:19;51.25;40.25;27.75
77411;PMS7003;66484;49.968;19.140;2023-02-23T15:04:47;45.33;40.00;27.00
77411;PMS7003;66484;49.968;19.140;2023-02-23T15:07:13;49.50;40.75;28.00
77411;PMS7003;66484;49.968;19.140;2023-02-23T15:09:49;38.25;35.75;24.00
77411;PMS7003;66484;49.968;19.140;2023-02-23T15:14:42;39.00;36.67;26.00
77411;PMS7003;66484;49.968;19.140;2023-02-23T15:17:15;53.75;42.00;28.00
77411;PMS7003;66484;49.968;19.140;2023-02-23T15:19:43;50.75;39.75;28.00
77411;PMS7003;66484;49.968;19.140;2023-02-23T15:22:14;51.75;42.75;27.00
77411;PMS7003;66484;49.968;19.140;2023-02-23T15:24:46;48.25;39.25;28.00
77411;PMS7003;66484;49.968;19.140;2023-02-23T15:27:18;46.50;40.00;28.75
77411;PMS7003;66484;49.968;19.140;2023-02-23T15:29:47;46.75;40.75;29.00
77411;PMS7003;66484;49.968;19.140;2023-02-23T15:32:18;59.00;46.25;29.75
77411;PMS7003;66484;49.968;19.140;2023-02-23T15:34:46;52.00;42.75;29.25
77411;PMS7003;66484;49.968;19.140;2023-02-23T15:37:15;50.75;42.75;29.00
77411;PMS7003;66484;49.968;19.140;2023-02-23T15:40:04;54.25;41.25;28.00
77411;PMS7003;66484;49.968;19.140;2023-02-23T15:42:35;57.50;47.25;31.75
77411;PMS7003;66484;49.968;19.140;2023-02-23T15:45:10;40.50;36.75;24.00
77411;PMS7003;66484;49.968;19.140;2023-02-23T15:47:40;55.00;41.00;27.75
77411;PMS7003;66484;49.968;19.140;2023-02-23T15:52:47;45.75;41.25;28.50
77411;PMS7003;66484;49.968;19.140;2023-02-23T15:55:18;48.00;42.00;30.00
77411;PMS7003;66484;49.968;19.140;2023-02-23T15:57:55;59.75;49.25;32.00
77411;PMS7003;66484;49.968;19.140;2023-02-23T16:00:36;64.75;46.50;32.50
77411;PMS7003;66484;49.968;19.140;2023-02-23T16:03:03;70.25;53.75;35.00